Lackland Air Force Base (Kelly Field Annex) Airport
KSKF : now visible

Airfield :











YOU CAN JOIN US ON...

 
LOGIN :

Register | Disclaimer

   EN    FR    IT 

 









Legend :    VFR   Marginal VFR   IFR   Intensive IFR   Very Intensive IFR
Visi :
Ceiling :
>= 8 km
>= 3000ft
5 to 8 km
1000 to 3000 ft
1500m to 5 km
500 to 1000 ft
800 to 1500m
200 to 500 ft
< 800m
< 200 ft
Symbols :   Thunderstorms  Fog  Heavy snow  Heavy precipitations  Wind > 20 kt






- Airport Elevation : 691 ft


KSKF - Lackland Air Force Base (Kelly Field Annex)

CURRENT METAR :
  • 121956Z 03004KT 10SM FEW250 37/20 A2991 RMK AO2A SLP119 T03710199 $

EXPIRED METARs :
  • 121856Z 09004KT 10SM SCT250 35/20 A2993 RMK AO2A SLP126 T03530204 $
  • 121756Z AUTO 15003KT 10SM FEW160 FEW200 34/22 A2996 RMK AO2 SLP137 T03370218 10342 20244 57018 $

TAF TAF KSKF
Valid from the 12 at 18:00 until the 14 at 00:00 UTC


121800Z 1218/1400 17008KT 9999 FEW250 QNH2982INS
TEMPO 1304/1307 14012G18KT
BECMG 1319/1320 16010G15KT 9999 SKC QNH2978INS TX40/1222Z TN25/1312Z
KZHU FIR / North America



MET'MAP, your aeronautical weather chart ! - Copyright ORBIFLY December 2007 - Disclaimer

ORBIFLY MET'MAP TEAM :

Programming & Development : Alexandra Zaïnal
Concept & original design : Baudouin d'Aumeries
Assistance for programming : Marc-Olivier Méhu
Technical & hardware support : Manuel Goepfert

Contact : metmap@orbifly.com




SOURCES & CREDITS :

   NOAA       Earth
Advisory